createdAt,value
2019-03-27T00:01:15.641Z,16.87
2019-03-27T00:03:44.039Z,17.30
2019-03-27T00:06:12.193Z,16.03
2019-03-27T00:08:40.294Z,16.37
2019-03-27T00:11:08.708Z,16.63
2019-03-27T00:13:37.338Z,16.67
2019-03-27T00:16:07.310Z,17.67
2019-03-27T00:18:35.500Z,17.90
2019-03-27T00:21:03.705Z,17.27
2019-03-27T00:23:31.846Z,17.40
2019-03-27T00:26:00.056Z,15.67
2019-03-27T00:28:28.216Z,15.80
2019-03-27T00:30:56.852Z,18.13
2019-03-27T00:33:25.064Z,15.87
2019-03-27T00:35:53.147Z,16.87
2019-03-27T00:38:21.251Z,16.10
2019-03-27T00:40:49.332Z,18.00
2019-03-27T00:43:17.457Z,16.13
2019-03-27T00:45:46.042Z,17.30
2019-03-27T00:48:14.606Z,17.03
2019-03-27T00:50:42.767Z,20.03
2019-03-27T00:53:10.840Z,15.83
2019-03-27T00:55:39.040Z,17.40
2019-03-27T00:58:07.112Z,17.10
2019-03-27T01:01:12.725Z,15.60
2019-03-27T01:03:40.957Z,16.43
2019-03-27T01:06:09.553Z,16.43
2019-03-27T01:08:37.769Z,15.73
2019-03-27T01:11:06.373Z,69.57
2019-03-27T01:13:36.992Z,15.63
2019-03-27T01:16:05.365Z,14.90
2019-03-27T01:18:33.644Z,15.97
2019-03-27T01:21:01.723Z,15.33
2019-03-27T01:23:29.824Z,16.40
2019-03-27T01:25:57.963Z,16.40
2019-03-27T01:28:26.027Z,17.13
2019-03-27T01:30:54.311Z,18.00
2019-03-27T01:33:22.536Z,16.57
2019-03-27T01:35:50.834Z,17.63
2019-03-27T01:38:19.408Z,14.27
2019-03-27T01:40:47.486Z,17.50
2019-03-27T01:43:15.576Z,17.53
2019-03-27T01:45:52.860Z,16.90
2019-03-27T01:48:13.678Z,14.83
2019-03-27T01:50:41.843Z,16.80
2019-03-27T01:53:10.469Z,17.33
2019-03-27T01:55:38.564Z,15.60
2019-03-27T01:58:06.636Z,16.50
2019-03-27T02:00:35.356Z,15.67
2019-03-27T02:03:03.644Z,15.63
2019-03-27T02:05:32.019Z,15.33
2019-03-27T02:08:00.101Z,14.73
2019-03-27T02:10:28.272Z,15.80
2019-03-27T02:12:56.333Z,16.03
2019-03-27T02:15:24.636Z,18.60
2019-03-27T02:17:52.724Z,15.90
2019-03-27T02:20:21.198Z,17.53
2019-03-27T02:22:49.273Z,19.17
2019-03-27T02:25:17.408Z,16.83
2019-03-27T02:27:45.593Z,15.83
2019-03-27T02:30:13.840Z,16.70
2019-03-27T02:32:41.990Z,17.40
2019-03-27T02:35:10.232Z,17.13
2019-03-27T02:37:38.524Z,18.80
2019-03-27T02:40:06.856Z,17.13
2019-03-27T02:42:35.008Z,18.23
2019-03-27T02:45:03.330Z,17.80
2019-03-27T02:47:31.467Z,17.00
2019-03-27T02:49:59.685Z,16.47
2019-03-27T02:52:27.880Z,16.43
2019-03-27T02:54:56.037Z,17.43
2019-03-27T02:57:24.067Z,14.97
2019-03-27T02:59:52.132Z,16.90
2019-03-27T03:02:21.021Z,15.80
2019-03-27T03:04:49.498Z,16.60
2019-03-27T03:07:17.582Z,18.47
2019-03-27T03:09:45.695Z,15.27
2019-03-27T03:12:16.997Z,17.43
2019-03-27T03:14:45.194Z,17.37
2019-03-27T03:17:16.421Z,17.57
2019-03-27T03:19:44.538Z,16.23
2019-03-27T03:22:12.908Z,16.33
2019-03-27T03:24:41.033Z,15.67
2019-03-27T03:27:09.137Z,15.77
2019-03-27T03:29:37.416Z,16.10
2019-03-27T03:32:06.229Z,16.40
2019-03-27T03:34:34.556Z,18.57
2019-03-27T03:37:02.878Z,16.93
2019-03-27T03:39:31.113Z,17.13
2019-03-27T03:41:59.285Z,16.57
2019-03-27T03:44:27.554Z,16.83
2019-03-27T03:47:00.179Z,17.60
2019-03-27T03:49:26.440Z,17.53
2019-03-27T03:51:57.790Z,19.67
2019-03-27T03:54:26.268Z,17.77
2019-03-27T03:56:57.203Z,18.30
2019-03-27T03:59:28.019Z,18.07
2019-03-27T04:01:58.054Z,16.73
2019-03-27T04:04:27.068Z,17.50
2019-03-27T04:06:55.386Z,17.93
2019-03-27T04:09:23.534Z,17.10
2019-03-27T04:11:51.814Z,20.27
2019-03-27T04:14:20.182Z,17.93
2019-03-27T04:16:48.310Z,18.27
2019-03-27T04:19:16.431Z,17.70
2019-03-27T04:21:44.780Z,19.67
2019-03-27T04:24:13.021Z,19.70
2019-03-27T04:26:41.639Z,17.63
2019-03-27T04:29:09.848Z,18.07
2019-03-27T04:31:37.914Z,19.23
2019-03-27T04:34:05.974Z,17.30
2019-03-27T04:36:34.023Z,17.17
2019-03-27T04:39:03.407Z,18.80
2019-03-27T04:41:31.561Z,18.40
2019-03-27T04:44:00.958Z,19.10
2019-03-27T04:46:29.139Z,19.43
2019-03-27T04:48:57.513Z,18.27
2019-03-27T04:51:25.693Z,20.70
2019-03-27T04:53:53.806Z,18.50
2019-03-27T04:56:21.829Z,20.40
2019-03-27T04:58:50.056Z,20.10
2019-03-27T05:01:18.557Z,19.30
2019-03-27T05:03:46.645Z,18.73
2019-03-27T05:06:14.769Z,18.70
2019-03-27T05:08:42.818Z,19.50
2019-03-27T05:11:10.840Z,17.30
2019-03-27T05:13:38.969Z,20.63
2019-03-27T05:16:07.094Z,19.03
2019-03-27T05:18:35.240Z,18.03
2019-03-27T05:21:03.331Z,18.83
2019-03-27T05:23:31.680Z,19.23
2019-03-27T05:25:59.868Z,19.80
2019-03-27T05:28:27.949Z,18.40
2019-03-27T05:30:55.964Z,18.87
2019-03-27T05:33:24.004Z,19.63
2019-03-27T05:35:52.432Z,20.30
2019-03-27T05:38:20.557Z,20.27
2019-03-27T05:40:48.741Z,19.77
2019-03-27T05:43:16.830Z,21.17
2019-03-27T05:45:44.945Z,19.50
2019-03-27T05:48:13.271Z,20.63
2019-03-27T05:50:41.348Z,20.13
2019-03-27T05:53:09.415Z,22.00
2019-03-27T05:55:37.554Z,23.87
2019-03-27T05:58:05.628Z,22.33
2019-03-27T06:00:33.751Z,20.80
2019-03-27T06:03:01.839Z,20.40
2019-03-27T06:05:29.894Z,18.50
2019-03-27T06:07:58.350Z,20.40
2019-03-27T06:10:32.869Z,19.10
2019-03-27T06:13:01.432Z,21.03
2019-03-27T06:15:29.481Z,20.87
2019-03-27T06:17:57.636Z,20.47
2019-03-27T06:20:26.324Z,20.60
2019-03-27T06:22:54.555Z,20.53
2019-03-27T06:25:22.683Z,21.27
2019-03-27T06:27:51.500Z,19.20
2019-03-27T06:30:19.621Z,21.43
2019-03-27T06:32:47.652Z,20.60
2019-03-27T06:35:15.765Z,21.03
2019-03-27T06:37:44.076Z,21.50
2019-03-27T06:40:12.385Z,18.40
2019-03-27T06:42:40.441Z,20.50
2019-03-27T06:45:09.516Z,21.73
2019-03-27T06:47:37.612Z,20.30
2019-03-27T06:50:06.401Z,21.40
2019-03-27T06:52:34.533Z,22.17
2019-03-27T06:55:02.693Z,25.87
2019-03-27T06:57:30.820Z,21.60
2019-03-27T06:59:58.881Z,20.20
2019-03-27T07:02:29.011Z,20.90
2019-03-27T07:04:59.229Z,19.87
2019-03-27T07:07:28.985Z,22.63
2019-03-27T07:10:02.526Z,22.47
2019-03-27T07:12:31.442Z,20.70
2019-03-27T07:14:59.637Z,20.50
2019-03-27T07:17:40.559Z,21.37
2019-03-27T07:20:10.185Z,21.30
2019-03-27T07:22:39.500Z,22.07
2019-03-27T07:25:10.241Z,22.83
2019-03-27T07:27:38.469Z,20.23
2019-03-27T07:30:08.379Z,21.47
2019-03-27T07:32:36.492Z,20.87
2019-03-27T07:35:04.920Z,22.60
2019-03-27T07:37:33.073Z,24.10
2019-03-27T07:40:01.258Z,21.80
2019-03-27T07:42:29.793Z,24.67
2019-03-27T07:44:57.945Z,22.20
2019-03-27T07:47:29.380Z,23.43
2019-03-27T07:49:57.417Z,20.40
2019-03-27T07:52:25.600Z,20.30
2019-03-27T07:54:53.637Z,22.10
2019-03-27T07:57:21.798Z,20.23
2019-03-27T07:59:50.224Z,22.33
2019-03-27T08:02:19.850Z,21.50
2019-03-27T08:04:52.650Z,22.10
2019-03-27T08:11:38.815Z,22.37
2019-03-27T08:14:14.366Z,21.33
2019-03-27T08:17:01.786Z,22.67
2019-03-27T08:19:30.118Z,21.50
2019-03-27T08:22:03.761Z,22.20
2019-03-27T08:24:37.221Z,22.00
2019-03-27T08:27:08.523Z,22.90
2019-03-27T08:29:47.744Z,21.00
2019-03-27T08:32:14.062Z,21.03
2019-03-27T08:34:42.273Z,22.37
2019-03-27T08:37:11.178Z,19.83
2019-03-27T08:39:42.518Z,21.00
2019-03-27T08:42:11.584Z,21.00
2019-03-27T08:44:45.246Z,20.20
2019-03-27T08:47:13.779Z,19.27
2019-03-27T08:49:42.199Z,23.10
2019-03-27T08:52:10.885Z,20.90
2019-03-27T08:54:46.352Z,22.97
2019-03-27T08:57:14.461Z,20.83
2019-03-27T08:59:45.654Z,20.10
2019-03-27T09:02:15.730Z,19.87
2019-03-27T09:04:43.791Z,21.40
2019-03-27T09:07:11.888Z,22.37
2019-03-27T09:09:40.493Z,19.93
2019-03-27T09:12:08.749Z,19.13
2019-03-27T09:14:36.976Z,20.50
2019-03-27T09:17:05.684Z,19.07
2019-03-27T09:19:35.977Z,17.80
2019-03-27T09:22:03.858Z,19.93
2019-03-27T09:24:31.893Z,18.90
2019-03-27T09:27:02.773Z,21.00
2019-03-27T09:29:31.157Z,17.77
2019-03-27T09:31:59.303Z,17.07
2019-03-27T09:34:27.624Z,15.93
2019-03-27T09:36:55.893Z,15.53
2019-03-27T09:39:24.718Z,13.80
2019-03-27T09:41:53.509Z,12.70
2019-03-27T09:44:21.576Z,13.50
2019-03-27T09:46:49.816Z,14.70
2019-03-27T09:49:17.919Z,15.70
2019-03-27T09:51:46.006Z,15.13
2019-03-27T09:54:14.248Z,13.93
2019-03-27T09:56:42.374Z,14.10
2019-03-27T09:59:10.478Z,13.87
2019-03-27T10:01:39.645Z,13.47
2019-03-27T10:04:08.005Z,13.77
2019-03-27T10:06:36.160Z,14.20
2019-03-27T10:09:06.422Z,8.50
2019-03-27T10:11:34.677Z,7.60
2019-03-27T10:14:02.748Z,8.03
2019-03-27T10:16:30.934Z,7.50
2019-03-27T10:18:59.225Z,8.23
2019-03-27T10:21:27.686Z,7.20
2019-03-27T10:23:56.882Z,7.03
2019-03-27T10:26:25.024Z,7.50
2019-03-27T10:28:54.113Z,9.30
2019-03-27T10:31:22.383Z,8.50
2019-03-27T10:34:03.642Z,9.83
2019-03-27T10:36:35.126Z,9.30
2019-03-27T10:39:09.352Z,9.27
2019-03-27T10:41:38.015Z,6.80
2019-03-27T10:44:06.354Z,6.53
2019-03-27T10:46:34.691Z,9.60
2019-03-27T10:49:03.753Z,6.47
2019-03-27T10:51:32.093Z,7.97
2019-03-27T10:54:03.805Z,7.93
2019-03-27T10:56:32.257Z,6.63
2019-03-27T10:59:00.410Z,6.73
2019-03-27T11:01:28.700Z,6.30
2019-03-27T11:03:57.951Z,6.33
2019-03-27T11:06:26.376Z,4.73
2019-03-27T11:08:54.869Z,5.10
2019-03-27T11:11:23.249Z,5.23
2019-03-27T11:13:52.308Z,5.23
2019-03-27T11:16:20.994Z,5.60
2019-03-27T11:18:51.574Z,5.07
2019-03-27T11:21:20.965Z,4.37
2019-03-27T11:26:59.246Z,4.00
2019-03-27T11:29:27.532Z,4.77
2019-03-27T11:32:28.702Z,4.40
2019-03-27T11:35:04.505Z,4.43
2019-03-27T11:37:35.096Z,3.93
2019-03-27T11:40:12.599Z,4.10
2019-03-27T11:42:47.082Z,5.53
2019-03-27T11:45:15.807Z,4.27
2019-03-27T11:47:49.344Z,3.43
2019-03-27T11:50:28.317Z,3.60
2019-03-27T11:53:05.842Z,5.47
2019-03-27T11:55:37.603Z,3.70
2019-03-27T11:58:06.517Z,3.00
2019-03-27T12:00:38.142Z,3.33
2019-03-27T12:03:15.299Z,3.53
2019-03-27T12:05:54.594Z,4.50
2019-03-27T12:08:23.242Z,4.60
2019-03-27T12:11:34.169Z,5.40
2019-03-27T12:14:03.064Z,4.23
2019-03-27T12:16:49.994Z,5.03
2019-03-27T12:19:16.240Z,5.03
2019-03-27T12:21:49.886Z,4.60
2019-03-27T12:24:18.183Z,5.70
2019-03-27T12:26:47.241Z,5.37
2019-03-27T12:29:18.074Z,5.10
2019-03-27T12:31:45.897Z,4.70
2019-03-27T12:34:23.887Z,4.50
2019-03-27T12:36:52.410Z,4.63
2019-03-27T12:42:25.874Z,3.90
2019-03-27T12:45:13.198Z,3.77
2019-03-27T12:48:05.578Z,4.30
2019-03-27T12:50:44.387Z,4.20
2019-03-27T12:53:12.504Z,3.80
2019-03-27T12:55:48.304Z,3.20
2019-03-27T12:58:26.418Z,5.00
2019-03-27T13:00:55.894Z,5.27
2019-03-27T13:03:26.717Z,4.97
2019-03-27T13:06:07.514Z,5.50
2019-03-27T13:08:45.736Z,6.17
2019-03-27T13:11:14.386Z,6.43
2019-03-27T13:13:42.782Z,5.83
2019-03-27T13:16:11.080Z,6.33
2019-03-27T13:18:39.613Z,6.10
2019-03-27T13:21:08.494Z,5.60
2019-03-27T13:23:37.357Z,4.73
2019-03-27T13:26:05.581Z,5.23
2019-03-27T13:28:47.834Z,6.53
2019-03-27T13:31:05.874Z,4.80
2019-03-27T13:33:34.223Z,5.30
2019-03-27T13:36:02.683Z,7.17
2019-03-27T13:38:31.281Z,5.10
2019-03-27T13:41:02.756Z,5.03
2019-03-27T13:43:31.100Z,5.70
2019-03-27T13:45:59.706Z,6.77
2019-03-27T13:48:28.157Z,5.27
2019-03-27T13:50:56.557Z,6.50
2019-03-27T13:53:25.737Z,5.07
2019-03-27T13:55:54.181Z,6.00
2019-03-27T13:58:23.125Z,7.27
2019-03-27T14:00:51.389Z,6.20
2019-03-27T14:03:19.697Z,5.53
2019-03-27T14:05:48.021Z,5.63
2019-03-27T14:08:16.084Z,5.53
2019-03-27T14:10:44.529Z,5.63
2019-03-27T14:13:12.735Z,4.87
2019-03-27T14:15:40.976Z,5.00
2019-03-27T14:18:09.374Z,5.20
2019-03-27T14:20:43.369Z,6.13
2019-03-27T14:23:11.921Z,5.03
2019-03-27T14:25:40.275Z,5.10
2019-03-27T14:28:09.256Z,4.60
2019-03-27T14:31:03.021Z,4.20
2019-03-27T14:33:31.278Z,4.10
2019-03-27T14:35:59.825Z,4.43
2019-03-27T14:38:28.013Z,5.20
2019-03-27T14:40:56.371Z,4.87
2019-03-27T14:43:27.093Z,3.97
2019-03-27T14:45:54.717Z,5.10
2019-03-27T14:48:23.144Z,3.57
2019-03-27T14:50:51.473Z,4.10
2019-03-27T14:53:19.821Z,3.93
2019-03-27T14:55:48.032Z,3.50
2019-03-27T14:58:16.217Z,4.40
2019-03-27T15:00:45.019Z,4.33
2019-03-27T15:03:13.230Z,4.30
2019-03-27T15:05:46.713Z,3.60
2019-03-27T15:08:15.028Z,4.30
2019-03-27T15:10:43.434Z,4.30
2019-03-27T15:13:15.048Z,4.50
2019-03-27T15:15:41.742Z,5.27
2019-03-27T15:18:10.131Z,4.00
2019-03-27T15:20:39.098Z,3.70
2019-03-27T15:23:07.503Z,3.33
2019-03-27T15:25:38.393Z,3.97
2019-03-27T15:28:06.918Z,3.87
2019-03-27T15:30:35.270Z,3.87
2019-03-27T15:33:06.981Z,3.67
2019-03-27T15:35:35.442Z,4.17
2019-03-27T15:38:05.313Z,3.80
2019-03-27T15:40:42.234Z,4.00
2019-03-27T15:43:11.023Z,3.70
2019-03-27T15:45:39.527Z,3.50
2019-03-27T15:48:09.803Z,3.93
2019-03-27T15:50:38.183Z,3.80
2019-03-27T15:53:06.681Z,3.43
2019-03-27T15:55:35.498Z,3.80
2019-03-27T15:58:04.329Z,4.17
2019-03-27T16:00:35.011Z,3.23
2019-03-27T16:06:21.705Z,4.40
2019-03-27T16:08:50.609Z,3.90
2019-03-27T16:11:19.005Z,4.00
2019-03-27T16:13:47.502Z,4.20
2019-03-27T16:16:20.325Z,4.13
2019-03-27T16:18:53.324Z,4.13
2019-03-27T16:21:21.916Z,3.57
2019-03-27T16:24:06.287Z,3.60
2019-03-27T16:26:30.623Z,4.20
2019-03-27T16:29:00.170Z,4.57
2019-03-27T16:31:28.222Z,3.93
2019-03-27T16:33:56.288Z,4.73
2019-03-27T16:36:37.596Z,4.13
2019-03-27T16:39:13.335Z,4.30
2019-03-27T16:41:48.018Z,3.83
2019-03-27T16:44:18.316Z,4.10
2019-03-27T16:46:48.155Z,3.73
2019-03-27T16:49:16.370Z,3.80
2019-03-27T16:51:44.746Z,4.27
2019-03-27T16:54:12.785Z,3.90
2019-03-27T16:56:41.128Z,4.80
2019-03-27T16:59:09.284Z,4.00
2019-03-27T17:04:43.325Z,4.00
2019-03-27T17:07:20.558Z,4.30
2019-03-27T17:09:53.182Z,3.70
2019-03-27T17:12:21.199Z,3.87
2019-03-27T17:14:49.368Z,4.70
2019-03-27T17:17:17.822Z,3.93
2019-03-27T17:19:46.209Z,4.60
2019-03-27T17:23:21.527Z,4.67
2019-03-27T17:25:57.577Z,4.00
2019-03-27T17:28:25.713Z,3.80
2019-03-27T17:30:53.701Z,3.67
2019-03-27T17:33:21.929Z,4.10
2019-03-27T17:35:49.987Z,4.03
2019-03-27T17:38:18.354Z,3.90
2019-03-27T17:40:46.989Z,3.93
2019-03-27T17:43:15.036Z,3.90
2019-03-27T17:45:45.458Z,3.70
2019-03-27T17:48:13.836Z,10.97
2019-03-27T17:50:41.840Z,13.53
2019-03-27T17:53:10.157Z,7.27
2019-03-27T17:55:38.228Z,6.43
2019-03-27T17:58:06.450Z,5.73
2019-03-27T18:00:48.802Z,5.43
2019-03-27T18:03:17.114Z,4.73
2019-03-27T18:05:53.917Z,4.80
2019-03-27T18:08:22.627Z,4.20
2019-03-27T18:10:50.739Z,5.27
2019-03-27T18:13:18.780Z,4.93
2019-03-27T18:15:57.010Z,6.70
2019-03-27T18:18:28.877Z,5.53
2019-03-27T18:20:57.382Z,6.20
2019-03-27T18:23:45.363Z,8.20
2019-03-27T18:26:04.220Z,8.30
2019-03-27T18:28:32.849Z,7.97
2019-03-27T18:31:01.005Z,7.67
2019-03-27T18:33:29.492Z,6.57
2019-03-27T18:35:57.745Z,8.73
2019-03-27T18:38:26.203Z,8.20
2019-03-27T18:40:54.738Z,8.13
2019-03-27T18:43:23.292Z,7.93
2019-03-27T18:45:51.727Z,8.37
2019-03-27T18:48:20.219Z,10.37
2019-03-27T18:50:48.498Z,9.90
2019-03-27T18:53:16.709Z,9.33
2019-03-27T18:55:47.283Z,8.53
2019-03-27T18:58:15.492Z,8.80
2019-03-27T19:00:43.673Z,8.57
2019-03-27T19:03:12.001Z,8.40
2019-03-27T19:05:40.148Z,9.17
2019-03-27T19:08:09.107Z,9.37
2019-03-27T19:10:38.289Z,14.13
2019-03-27T19:13:10.369Z,17.37
2019-03-27T19:15:49.293Z,18.00
2019-03-27T19:18:28.114Z,20.73
2019-03-27T19:21:05.867Z,23.30
2019-03-27T19:23:34.284Z,21.73
2019-03-27T19:26:02.857Z,17.10
2019-03-27T19:28:37.093Z,12.90
2019-03-27T19:31:05.541Z,11.37
2019-03-27T19:33:33.827Z,11.37
2019-03-27T19:36:02.275Z,8.27
2019-03-27T19:38:30.813Z,8.70
2019-03-27T19:40:58.954Z,9.13
2019-03-27T19:43:27.118Z,10.27
2019-03-27T19:45:57.629Z,8.63
2019-03-27T19:48:25.868Z,9.17
2019-03-27T19:50:54.277Z,9.63
2019-03-27T19:53:22.384Z,10.53
2019-03-27T19:55:50.585Z,8.50
2019-03-27T19:58:18.799Z,8.30
2019-03-27T20:00:47.229Z,10.07
2019-03-27T20:03:15.517Z,8.43
2019-03-27T20:05:44.839Z,7.07
2019-03-27T20:08:13.207Z,7.40
2019-03-27T20:10:44.349Z,7.90
2019-03-27T20:13:12.623Z,7.50
2019-03-27T20:15:43.505Z,7.33
2019-03-27T20:18:11.890Z,8.37
2019-03-27T20:20:42.637Z,8.10
2019-03-27T20:23:18.321Z,7.53
2019-03-27T20:25:47.157Z,7.27
2019-03-27T20:28:15.947Z,8.27
2019-03-27T20:30:44.386Z,7.73
2019-03-27T20:33:12.553Z,8.50
2019-03-27T20:35:41.133Z,7.67
2019-03-27T20:38:09.721Z,8.13
2019-03-27T20:40:39.363Z,8.43
2019-03-27T20:43:07.859Z,9.40
2019-03-27T20:45:39.803Z,9.70
2019-03-27T20:48:11.401Z,9.67
2019-03-27T20:50:41.674Z,9.83
2019-03-27T20:53:10.200Z,10.13
2019-03-27T20:55:43.427Z,10.60
2019-03-27T20:58:12.229Z,11.17
2019-03-27T21:00:40.841Z,9.10
2019-03-27T21:03:09.554Z,9.67
2019-03-27T21:05:40.579Z,9.33
2019-03-27T21:08:09.216Z,10.33
2019-03-27T21:10:37.927Z,9.73
2019-03-27T21:13:09.357Z,9.67
2019-03-27T21:15:40.639Z,10.30
2019-03-27T21:18:15.375Z,11.90
2019-03-27T21:20:43.975Z,10.70
2019-03-27T21:23:15.318Z,10.80
2019-03-27T21:25:44.064Z,10.63
2019-03-27T21:28:14.716Z,11.10
2019-03-27T21:30:43.485Z,10.50
2019-03-27T21:33:12.502Z,11.93
2019-03-27T21:35:55.286Z,10.30
2019-03-27T21:38:29.354Z,10.30
2019-03-27T21:40:59.272Z,10.40
2019-03-27T21:43:27.623Z,11.00
2019-03-27T21:45:58.257Z,11.07
2019-03-27T21:48:26.645Z,15.53
2019-03-27T21:50:54.997Z,13.73
2019-03-27T21:53:25.491Z,11.33
2019-03-27T21:55:54.517Z,11.20
2019-03-27T21:58:25.851Z,11.67
2019-03-27T22:00:54.217Z,11.27
2019-03-27T22:03:22.276Z,12.00
2019-03-27T22:05:50.510Z,11.83
2019-03-27T22:08:19.640Z,12.70
2019-03-27T22:10:47.927Z,11.00
2019-03-27T22:13:16.076Z,11.27
2019-03-27T22:15:44.857Z,11.43
2019-03-27T22:18:13.046Z,12.10
2019-03-27T22:20:41.444Z,12.13
2019-03-27T22:23:09.659Z,12.70
2019-03-27T22:25:38.199Z,11.30
2019-03-27T22:28:08.529Z,10.77
2019-03-27T22:30:38.752Z,12.60
2019-03-27T22:33:07.865Z,11.90
2019-03-27T22:35:36.557Z,11.60
2019-03-27T22:38:05.107Z,12.07
2019-03-27T22:40:33.274Z,11.40
2019-03-27T22:43:02.149Z,10.60
2019-03-27T22:45:30.958Z,11.60
2019-03-27T22:48:02.096Z,11.53
2019-03-27T22:50:30.655Z,11.23
2019-03-27T22:53:00.362Z,11.63
2019-03-27T22:55:29.823Z,11.60
2019-03-27T22:57:58.199Z,17.53
2019-03-27T23:00:45.807Z,18.53
2019-03-27T23:03:18.434Z,19.83
2019-03-27T23:05:44.610Z,13.50
2019-03-27T23:08:13.532Z,12.00
2019-03-27T23:10:42.029Z,11.60
2019-03-27T23:13:11.107Z,13.17
2019-03-27T23:15:41.607Z,11.10
2019-03-27T23:18:09.897Z,11.93
2019-03-27T23:20:38.173Z,11.67
2019-03-27T23:23:06.565Z,11.40
2019-03-27T23:25:34.688Z,12.70
2019-03-27T23:28:02.992Z,12.60
2019-03-27T23:30:31.189Z,12.47
2019-03-27T23:32:59.470Z,13.87
2019-03-27T23:35:27.717Z,12.50
2019-03-27T23:37:55.993Z,12.70
2019-03-27T23:40:24.214Z,12.53
2019-03-27T23:42:52.256Z,12.83
2019-03-27T23:45:20.370Z,15.33
2019-03-27T23:47:48.441Z,12.07
2019-03-27T23:50:16.448Z,13.20
2019-03-27T23:52:44.642Z,12.90
2019-03-27T23:55:12.784Z,12.30
2019-03-27T23:57:42.825Z,12.37
